createdAt,value
2023-11-07T00:01:51.046Z,4.30
2023-11-07T00:04:56.712Z,4.15
2023-11-07T00:08:00.469Z,4.28
2023-11-07T00:11:04.988Z,4.93
2023-11-07T00:14:09.190Z,4.00
2023-11-07T00:17:12.906Z,3.95
2023-11-07T00:20:18.366Z,4.10
2023-11-07T00:23:22.125Z,3.65
2023-11-07T00:26:26.924Z,4.75
2023-11-07T00:29:31.316Z,4.82
2023-11-07T00:32:35.569Z,3.60
2023-11-07T00:35:42.417Z,4.20
2023-11-07T00:38:46.514Z,3.88
2023-11-07T00:41:50.261Z,4.15
2023-11-07T00:44:53.933Z,3.95
2023-11-07T00:47:58.191Z,3.20
2023-11-07T00:51:03.671Z,3.33
2023-11-07T00:54:08.577Z,3.85
2023-11-07T00:57:12.893Z,3.72
2023-11-07T01:00:17.716Z,3.70
2023-11-07T01:03:22.857Z,3.90
2023-11-07T01:06:28.143Z,3.88
2023-11-07T01:09:31.833Z,3.70
2023-11-07T01:12:35.550Z,4.10
2023-11-07T01:15:39.405Z,3.97
2023-11-07T01:18:43.141Z,4.28
2023-11-07T01:21:48.503Z,4.20
2023-11-07T01:24:52.236Z,3.97
2023-11-07T01:27:56.454Z,3.70
2023-11-07T01:31:00.143Z,4.00
2023-11-07T01:34:03.873Z,3.97
2023-11-07T01:37:09.086Z,4.00
2023-11-07T01:40:14.107Z,4.65
2023-11-07T01:43:18.047Z,4.03
2023-11-07T01:46:22.514Z,4.70
2023-11-07T01:49:26.784Z,4.25
2023-11-07T01:52:32.354Z,4.32
2023-11-07T01:55:36.466Z,4.63
2023-11-07T01:58:40.137Z,4.50
2023-11-07T02:01:46.033Z,4.65
2023-11-07T02:04:49.754Z,4.30
2023-11-07T02:07:56.141Z,4.13
2023-11-07T02:10:59.909Z,4.18
2023-11-07T02:14:04.031Z,4.57
2023-11-07T02:17:11.972Z,4.30
2023-11-07T02:20:15.780Z,4.80
2023-11-07T02:23:30.507Z,4.75
2023-11-07T02:26:34.304Z,4.30
2023-11-07T02:29:38.958Z,4.40
2023-11-07T02:32:43.448Z,4.35
2023-11-07T02:35:47.212Z,4.47
2023-11-07T02:38:52.404Z,4.72
2023-11-07T02:41:56.995Z,4.18
2023-11-07T02:45:00.920Z,4.05
2023-11-07T02:48:05.049Z,4.25
2023-11-07T02:51:09.000Z,4.50
2023-11-07T02:54:14.228Z,4.32
2023-11-07T02:57:18.069Z,4.30
2023-11-07T03:00:22.023Z,4.13
2023-11-07T03:03:26.610Z,4.00
2023-11-07T03:06:30.825Z,4.13
2023-11-07T03:09:36.518Z,4.38
2023-11-07T03:12:40.198Z,4.20
2023-11-07T03:15:45.278Z,3.80
2023-11-07T03:18:49.226Z,4.18
2023-11-07T03:21:53.063Z,3.92
2023-11-07T03:24:58.174Z,3.70
2023-11-07T03:28:01.870Z,4.10
2023-11-07T03:31:06.135Z,3.80
2023-11-07T03:34:11.161Z,4.47
2023-11-07T03:37:15.113Z,4.13
2023-11-07T03:40:21.460Z,4.53
2023-11-07T03:43:25.162Z,4.18
2023-11-07T03:46:28.796Z,6.25
2023-11-07T03:49:32.706Z,4.15
2023-11-07T03:52:36.394Z,4.50
2023-11-07T03:55:41.569Z,3.80
2023-11-07T03:58:45.459Z,3.60
2023-11-07T04:01:49.093Z,4.03
2023-11-07T04:04:52.747Z,7.45
2023-11-07T04:07:57.760Z,4.13
2023-11-07T04:11:02.961Z,3.92
2023-11-07T04:14:06.931Z,3.70
2023-11-07T04:17:10.608Z,3.70
2023-11-07T04:20:15.155Z,4.00
2023-11-07T04:23:19.321Z,3.75
2023-11-07T04:26:24.402Z,3.80
2023-11-07T04:29:28.162Z,3.38
2023-11-07T04:32:32.037Z,3.70
2023-11-07T04:35:36.402Z,3.80
2023-11-07T04:38:42.846Z,3.70
2023-11-07T04:41:48.025Z,3.30
2023-11-07T04:44:52.085Z,3.80
2023-11-07T04:47:56.389Z,3.90
2023-11-07T04:51:00.979Z,3.95
2023-11-07T04:54:05.075Z,3.78
2023-11-07T04:57:10.361Z,3.80
2023-11-07T05:00:17.098Z,3.70
2023-11-07T05:03:27.492Z,3.95
2023-11-07T05:06:36.733Z,3.78
2023-11-07T05:09:40.767Z,3.63
2023-11-07T05:12:45.820Z,3.63
2023-11-07T05:15:49.487Z,3.88
2023-11-07T05:18:53.628Z,3.53
2023-11-07T05:21:57.428Z,4.18
2023-11-07T05:25:01.086Z,4.25
2023-11-07T05:28:06.922Z,3.95
2023-11-07T05:31:11.168Z,4.13
2023-11-07T05:34:15.036Z,4.22
2023-11-07T05:37:18.901Z,4.05
2023-11-07T05:40:24.955Z,4.15
2023-11-07T05:43:30.195Z,4.10
2023-11-07T05:46:34.202Z,3.65
2023-11-07T05:49:37.861Z,3.85
2023-11-07T05:52:41.637Z,3.17
2023-11-07T05:55:46.189Z,3.83
2023-11-07T05:58:51.631Z,3.70
2023-11-07T06:01:55.530Z,4.40
2023-11-07T06:05:00.190Z,4.15
2023-11-07T06:08:03.920Z,3.67
2023-11-07T06:11:07.666Z,4.43
2023-11-07T06:14:12.702Z,3.50
2023-11-07T06:17:18.776Z,4.40
2023-11-07T06:20:22.683Z,3.72
2023-11-07T06:23:26.822Z,4.10
2023-11-07T06:26:31.079Z,4.22
2023-11-07T06:29:36.112Z,4.18
2023-11-07T06:32:40.126Z,4.35
2023-11-07T06:35:46.013Z,5.00
2023-11-07T06:38:49.848Z,4.68
2023-11-07T06:41:54.739Z,5.15
2023-11-07T06:45:00.374Z,4.70
2023-11-07T06:48:05.542Z,4.45
2023-11-07T06:51:10.997Z,4.43
2023-11-07T06:54:15.068Z,5.70
2023-11-07T06:57:18.935Z,4.40
2023-11-07T07:00:27.100Z,4.00
2023-11-07T07:03:31.384Z,4.05
2023-11-07T07:06:37.289Z,5.30
2023-11-07T07:09:42.450Z,5.05
2023-11-07T07:12:46.278Z,4.25
2023-11-07T07:15:51.346Z,4.43
2023-11-07T07:18:55.106Z,7.63
2023-11-07T07:21:58.853Z,5.55
2023-11-07T07:25:06.893Z,5.50
2023-11-07T07:28:10.582Z,7.30
2023-11-07T07:31:19.434Z,7.30
2023-11-07T07:34:23.591Z,15.43
2023-11-07T07:37:29.362Z,12.77
2023-11-07T07:40:33.430Z,6.18
2023-11-07T07:43:38.164Z,9.73
2023-11-07T07:46:45.388Z,8.05
2023-11-07T07:49:49.014Z,6.47
2023-11-07T07:52:57.301Z,10.68
2023-11-07T07:56:01.612Z,4.72
2023-11-07T07:59:06.671Z,6.03
2023-11-07T08:02:12.102Z,4.93
2023-11-07T08:05:18.241Z,8.52
2023-11-07T08:08:22.101Z,4.70
2023-11-07T08:11:25.755Z,3.97
2023-11-07T08:14:31.659Z,6.72
2023-11-07T08:17:38.914Z,4.32
2023-11-07T08:20:42.769Z,3.72
2023-11-07T08:23:46.503Z,3.78
2023-11-07T08:26:51.545Z,4.82
2023-11-07T08:29:55.675Z,3.33
2023-11-07T08:33:01.156Z,2.90
2023-11-07T08:36:05.272Z,3.95
2023-11-07T08:39:17.631Z,3.25
2023-11-07T08:42:21.563Z,2.92
2023-11-07T08:45:25.408Z,2.33
2023-11-07T08:48:32.163Z,2.45
2023-11-07T08:51:35.877Z,2.78
2023-11-07T08:54:40.431Z,3.70
2023-11-07T08:57:45.700Z,2.42
2023-11-07T09:00:52.419Z,2.20
2023-11-07T09:03:57.615Z,4.45
2023-11-07T09:07:02.233Z,1.90
2023-11-07T09:10:07.144Z,1.80
2023-11-07T09:13:12.189Z,2.05
2023-11-07T09:16:17.021Z,5.10
2023-11-07T09:19:22.179Z,1.60
2023-11-07T09:22:25.858Z,1.83
2023-11-07T09:25:29.521Z,2.05
2023-11-07T09:28:33.877Z,2.15
2023-11-07T09:31:37.840Z,2.10
2023-11-07T09:34:42.961Z,1.60
2023-11-07T09:37:46.752Z,1.70
2023-11-07T09:40:50.761Z,1.80
2023-11-07T09:43:55.056Z,1.70
2023-11-07T09:47:00.148Z,2.00
2023-11-07T09:50:08.992Z,1.73
2023-11-07T09:53:15.643Z,1.52
2023-11-07T09:56:19.756Z,1.45
2023-11-07T09:59:27.483Z,1.55
2023-11-07T10:02:32.815Z,1.52
2023-11-07T10:05:40.024Z,1.40
2023-11-07T10:08:44.268Z,1.40
2023-11-07T10:11:50.929Z,1.27
2023-11-07T10:14:54.821Z,1.30
2023-11-07T10:18:00.336Z,1.30
2023-11-07T10:21:05.826Z,1.40
2023-11-07T10:24:11.450Z,1.33
2023-11-07T10:27:16.497Z,2.92
2023-11-07T10:30:20.420Z,2.38
2023-11-07T10:33:29.795Z,1.65
2023-11-07T10:36:42.092Z,1.20
2023-11-07T10:39:57.024Z,5.68
2023-11-07T10:43:00.800Z,1.00
2023-11-07T10:46:05.936Z,1.27
2023-11-07T10:49:10.563Z,1.60
2023-11-07T10:52:18.212Z,2.05
2023-11-07T10:55:22.030Z,2.38
2023-11-07T10:58:28.395Z,1.42
2023-11-07T11:01:34.920Z,4.15
2023-11-07T11:04:40.678Z,2.17
2023-11-07T11:07:50.277Z,2.63
2023-11-07T11:10:54.746Z,4.07
2023-11-07T11:13:59.448Z,1.30
2023-11-07T11:17:08.791Z,1.20
2023-11-07T11:20:23.842Z,4.22
2023-11-07T11:23:40.696Z,2.28
2023-11-07T11:26:49.874Z,1.00
2023-11-07T11:29:53.645Z,1.13
2023-11-07T11:33:08.284Z,1.10
2023-11-07T11:36:45.175Z,1.38
2023-11-07T11:39:50.446Z,1.13
2023-11-07T11:43:06.540Z,1.20
2023-11-07T11:46:39.199Z,0.98
2023-11-07T11:50:16.724Z,1.13
2023-11-07T11:53:36.115Z,1.40
2023-11-07T11:57:09.332Z,0.80
2023-11-07T12:00:13.829Z,1.75
2023-11-07T12:03:20.047Z,1.15
2023-11-07T12:06:25.023Z,3.22
2023-11-07T12:09:32.008Z,1.20
2023-11-07T12:12:38.867Z,1.00
2023-11-07T12:15:44.711Z,1.27
2023-11-07T12:18:51.480Z,0.80
2023-11-07T12:21:56.678Z,0.80
2023-11-07T12:25:13.434Z,0.80
2023-11-07T12:28:18.537Z,0.60
2023-11-07T12:31:25.730Z,0.90
2023-11-07T12:34:33.349Z,3.40
2023-11-07T12:37:37.970Z,0.80
2023-11-07T12:40:41.866Z,0.80
2023-11-07T12:43:47.651Z,0.73
2023-11-07T12:46:52.035Z,2.05
2023-11-07T12:49:57.147Z,1.00
2023-11-07T12:53:02.134Z,0.85
2023-11-07T12:56:11.870Z,1.00
2023-11-07T12:59:18.970Z,0.82
2023-11-07T13:02:23.945Z,1.90
2023-11-07T13:05:28.015Z,1.20
2023-11-07T13:08:32.452Z,1.00
2023-11-07T13:11:36.500Z,1.10
2023-11-07T13:14:41.719Z,0.85
2023-11-07T13:17:45.909Z,0.93
2023-11-07T13:20:49.520Z,1.00
2023-11-07T13:23:54.574Z,1.20
2023-11-07T13:26:58.602Z,1.40
2023-11-07T13:30:06.598Z,0.90
2023-11-07T13:33:11.299Z,0.90
2023-11-07T13:36:16.703Z,0.90
2023-11-07T13:39:25.170Z,1.38
2023-11-07T13:42:29.098Z,1.00
2023-11-07T13:45:34.126Z,0.93
2023-11-07T13:48:38.720Z,0.90
2023-11-07T13:51:43.813Z,0.95
2023-11-07T13:54:47.510Z,3.13
2023-11-07T13:57:53.424Z,2.08
2023-11-07T14:00:58.801Z,2.15
2023-11-07T14:04:02.683Z,0.95
2023-11-07T14:07:07.673Z,1.88
2023-11-07T14:10:14.212Z,1.08
2023-11-07T14:13:19.441Z,1.90
2023-11-07T14:16:26.526Z,2.85
2023-11-07T14:19:32.189Z,1.95
2023-11-07T14:22:35.877Z,1.35
2023-11-07T14:25:39.637Z,1.27
2023-11-07T14:28:54.813Z,1.02
2023-11-07T14:32:07.904Z,1.10
2023-11-07T14:35:12.476Z,1.42
2023-11-07T14:38:17.108Z,1.25
2023-11-07T14:41:23.653Z,1.75
2023-11-07T14:44:27.489Z,1.08
2023-11-07T14:47:34.576Z,1.15
2023-11-07T14:50:39.872Z,0.93
2023-11-07T14:53:44.140Z,1.02
2023-11-07T14:56:57.804Z,1.00
2023-11-07T15:00:10.372Z,1.00
2023-11-07T15:03:15.791Z,3.22
2023-11-07T15:06:19.550Z,1.15
2023-11-07T15:09:23.408Z,1.27
2023-11-07T15:12:27.112Z,1.75
2023-11-07T15:15:31.393Z,1.13
2023-11-07T15:18:36.625Z,1.20
2023-11-07T15:21:40.547Z,1.25
2023-11-07T15:24:44.273Z,0.98
2023-11-07T15:27:48.571Z,2.60
2023-11-07T15:30:52.377Z,1.00
2023-11-07T15:33:57.559Z,1.00
2023-11-07T15:37:01.222Z,1.02
2023-11-07T15:40:07.871Z,1.00
2023-11-07T15:43:11.710Z,1.67
2023-11-07T15:46:15.494Z,1.00
2023-11-07T15:49:20.555Z,2.72
2023-11-07T15:52:24.999Z,1.20
2023-11-07T15:55:29.756Z,1.48
2023-11-07T15:58:33.751Z,1.00
2023-11-07T16:01:38.291Z,1.42
2023-11-07T16:04:43.470Z,2.92
2023-11-07T16:07:47.260Z,0.95
2023-11-07T16:10:51.005Z,1.65
2023-11-07T16:13:54.629Z,1.38
2023-11-07T16:16:58.326Z,1.00
2023-11-07T16:20:03.431Z,1.20
2023-11-07T16:23:09.719Z,1.08
2023-11-07T16:26:14.018Z,1.10
2023-11-07T16:29:18.488Z,5.78
2023-11-07T16:32:22.369Z,1.15
2023-11-07T16:35:27.506Z,0.90
2023-11-07T16:38:31.093Z,1.38
2023-11-07T16:41:35.707Z,0.80
2023-11-07T16:44:40.856Z,0.90
2023-11-07T16:47:44.892Z,0.90
2023-11-07T16:50:50.154Z,1.10
2023-11-07T16:53:54.851Z,0.80
2023-11-07T16:56:58.790Z,3.13
2023-11-07T17:00:04.871Z,1.48
2023-11-07T17:03:11.227Z,1.13
2023-11-07T17:06:16.689Z,2.45
2023-11-07T17:09:22.099Z,1.00
2023-11-07T17:12:25.944Z,2.05
2023-11-07T17:15:29.640Z,1.25
2023-11-07T17:18:35.545Z,1.33
2023-11-07T17:21:43.313Z,1.58
2023-11-07T17:24:47.856Z,1.00
2023-11-07T17:27:51.502Z,1.30
2023-11-07T17:30:55.191Z,1.30
2023-11-07T17:33:58.957Z,3.50
2023-11-07T17:37:04.950Z,1.13
2023-11-07T17:40:10.973Z,1.17
2023-11-07T17:43:14.636Z,1.55
2023-11-07T17:46:22.969Z,1.80
2023-11-07T17:49:26.756Z,2.85
2023-11-07T17:52:31.884Z,1.00
2023-11-07T17:55:35.714Z,1.48
2023-11-07T17:58:40.195Z,2.47
2023-11-07T18:01:43.982Z,1.17
2023-11-07T18:04:47.931Z,3.03
2023-11-07T18:07:52.948Z,1.13
2023-11-07T18:11:03.132Z,5.03
2023-11-07T18:14:06.912Z,4.22
2023-11-07T18:17:10.968Z,2.03
2023-11-07T18:20:14.760Z,3.60
2023-11-07T18:23:19.883Z,2.80
2023-11-07T18:26:23.910Z,2.15
2023-11-07T18:29:28.916Z,1.85
2023-11-07T18:32:32.625Z,2.40
2023-11-07T18:35:36.253Z,1.80
2023-11-07T18:38:42.855Z,2.40
2023-11-07T18:41:49.955Z,2.47
2023-11-07T18:44:53.613Z,1.92
2023-11-07T18:47:57.448Z,1.90
2023-11-07T18:51:01.455Z,2.70
2023-11-07T18:54:07.148Z,2.20
2023-11-07T18:57:14.017Z,2.38
2023-11-07T19:00:19.668Z,2.03
2023-11-07T19:03:23.473Z,2.40
2023-11-07T19:06:27.516Z,3.25
2023-11-07T19:09:32.933Z,2.13
2023-11-07T19:12:37.959Z,1.85
2023-11-07T19:15:41.766Z,3.95
2023-11-07T19:18:45.806Z,16.20
2023-11-07T19:21:49.493Z,2.88
2023-11-07T19:24:54.547Z,5.63
2023-11-07T19:27:59.541Z,1.65
2023-11-07T19:31:03.756Z,2.10
2023-11-07T19:34:07.460Z,1.70
2023-11-07T19:37:12.768Z,1.88
2023-11-07T19:40:21.802Z,1.70
2023-11-07T19:43:34.543Z,1.42
2023-11-07T19:46:43.764Z,1.60
2023-11-07T19:49:47.412Z,3.15
2023-11-07T19:52:57.665Z,1.95
2023-11-07T19:56:11.218Z,1.73
2023-11-07T19:59:14.991Z,3.25
2023-11-07T20:02:22.148Z,3.72
2023-11-07T20:05:27.570Z,1.63
2023-11-07T20:08:31.542Z,2.10
2023-11-07T20:11:38.414Z,2.20
2023-11-07T20:14:42.107Z,1.73
2023-11-07T20:17:45.958Z,1.92
2023-11-07T20:20:49.934Z,2.30
2023-11-07T20:23:54.633Z,2.00
2023-11-07T20:26:59.953Z,2.33
2023-11-07T20:30:04.010Z,3.55
2023-11-07T20:33:08.275Z,2.42
2023-11-07T20:36:15.911Z,2.28
2023-11-07T20:39:19.709Z,2.85
2023-11-07T20:42:24.963Z,2.08
2023-11-07T20:45:28.730Z,2.10
2023-11-07T20:48:36.002Z,2.75
2023-11-07T20:51:40.547Z,7.03
2023-11-07T20:54:44.326Z,3.08
2023-11-07T20:57:58.390Z,2.75
2023-11-07T21:01:05.745Z,2.00
2023-11-07T21:04:09.458Z,2.13
2023-11-07T21:07:13.888Z,2.42
2023-11-07T21:10:17.681Z,2.60
2023-11-07T21:13:24.252Z,2.70
2023-11-07T21:16:28.285Z,6.28
2023-11-07T21:19:32.314Z,2.47
2023-11-07T21:22:36.305Z,2.67
2023-11-07T21:25:40.154Z,2.65
2023-11-07T21:28:45.163Z,3.67
2023-11-07T21:31:53.171Z,3.22
2023-11-07T21:34:58.450Z,2.83
2023-11-07T21:38:02.085Z,3.15
2023-11-07T21:41:06.724Z,5.40
2023-11-07T21:44:12.127Z,2.92
2023-11-07T21:47:17.349Z,4.22
2023-11-07T21:50:22.146Z,3.42
2023-11-07T21:53:26.018Z,3.25
2023-11-07T21:56:30.575Z,2.70
2023-11-07T21:59:35.674Z,2.85
2023-11-07T22:02:40.036Z,2.90
2023-11-07T22:05:43.902Z,3.00
2023-11-07T22:08:48.210Z,2.60
2023-11-07T22:11:52.041Z,4.35
2023-11-07T22:14:57.030Z,2.40
2023-11-07T22:18:00.738Z,2.30
2023-11-07T22:21:06.011Z,3.90
2023-11-07T22:24:11.640Z,2.38
2023-11-07T22:27:15.578Z,2.33
2023-11-07T22:30:20.871Z,2.42
2023-11-07T22:33:24.741Z,1.95
2023-11-07T22:36:28.816Z,2.35
2023-11-07T22:39:32.560Z,3.35
2023-11-07T22:42:38.303Z,2.20
2023-11-07T22:45:43.711Z,1.92
2023-11-07T22:48:48.538Z,2.05
2023-11-07T22:51:52.280Z,2.92
2023-11-07T22:54:56.382Z,3.95
2023-11-07T22:58:00.043Z,2.28
2023-11-07T23:01:05.444Z,2.63
2023-11-07T23:04:09.190Z,2.38
2023-11-07T23:07:13.393Z,2.42
2023-11-07T23:10:17.164Z,2.08
2023-11-07T23:13:20.791Z,5.07
2023-11-07T23:16:25.946Z,10.25
2023-11-07T23:19:29.641Z,3.70
2023-11-07T23:22:33.234Z,2.00
2023-11-07T23:25:37.102Z,2.20
2023-11-07T23:28:40.877Z,2.20
2023-11-07T23:31:46.101Z,3.58
2023-11-07T23:34:49.700Z,2.15
2023-11-07T23:37:53.767Z,2.00
2023-11-07T23:40:57.489Z,1.98
2023-11-07T23:44:01.120Z,5.38
2023-11-07T23:47:06.739Z,4.88
2023-11-07T23:50:11.494Z,4.07
2023-11-07T23:53:15.289Z,5.18
2023-11-07T23:56:19.111Z,2.22
2023-11-07T23:59:22.799Z,3.60
